Etusivu
METAR-TAF:

METAR-TAF

Lentoasemat :

Estherville Municipal Airport

Estherville, Iowa, Yhdysvallat

Leveyspiiri: 43-24-04N, Pituuspiiri: 094-44-50W, korkeus merenpinnasta: 401 m

Tämänhetkinen sää

Tämä raportti tehtiin 33 minuuttia sitten, kello 20.52 UTC
Tuuli 24 kn etelästä puuskistuen 32 kn:hen
Lämpötila 8°C
Kosteus 46%
Ilmanpaine 1014 hPa
Näkyvyys: 16.1 km
selkeää

METAR: KEST 162052Z AUTO 17024G32KT 10SM CLR 08/M03 A2993 RMK AO2 PK WND 16032/2025 SLP146 T00781033 56033

Aika: 15:25 (21:25 UTC)


TAF: puuttuu

Säähavainnot ja -ennusteet yli 4000 lentoasemalta (METAR- ja TAF-raportit).

Käytössä olevat sääasemat on merkitty karttaan keltaisilla ja punaisilla pisteillä.

Aseta hiiri pisteen päälle nähdäksesi sääaseman nimen.

Klikkaa sitten nähdäksesi säähavainnot ja -ennusteet.

Kartan vaihtaminen: klikkaa mustalla rastilla varustettuja vihreitä pisteitä, niin voit zoomata sisään; viivalla varustettua vihreää pistettä, niin voit zoomata ulos tai vihreitä nuolia, niin pääset viereisille kartoille.


METAR-TAF: